createdAt,value
2017-07-04T00:00:08.870Z,15.48
2017-07-04T00:02:41.282Z,15.43
2017-07-04T00:05:14.627Z,15.43
2017-07-04T00:07:47.012Z,15.38
2017-07-04T00:10:19.365Z,15.38
2017-07-04T00:12:51.754Z,15.36
2017-07-04T00:15:25.144Z,15.35
2017-07-04T00:17:57.636Z,15.27
2017-07-04T00:20:29.888Z,15.24
2017-07-04T00:23:02.238Z,15.27
2017-07-04T00:25:34.692Z,15.31
2017-07-04T00:28:08.084Z,15.30
2017-07-04T00:30:40.485Z,15.38
2017-07-04T00:33:12.975Z,15.45
2017-07-04T00:35:45.815Z,15.54
2017-07-04T00:38:17.887Z,15.61
2017-07-04T00:40:50.197Z,15.65
2017-07-04T00:43:22.566Z,15.72
2017-07-04T00:45:54.925Z,15.80
2017-07-04T00:48:27.403Z,15.79
2017-07-04T00:50:59.771Z,15.84
2017-07-04T00:53:32.560Z,15.85
2017-07-04T00:56:04.690Z,15.88
2017-07-04T00:58:37.064Z,15.92
2017-07-04T01:01:09.680Z,15.92
2017-07-04T01:03:41.696Z,15.89
2017-07-04T01:06:14.108Z,15.95
2017-07-04T01:08:46.371Z,16.02
2017-07-04T01:11:18.754Z,15.99
2017-07-04T01:13:51.065Z,15.98
2017-07-04T01:16:23.416Z,16.05
2017-07-04T01:18:55.793Z,16.06
2017-07-04T01:21:28.125Z,16.02
2017-07-04T01:24:00.507Z,15.99
2017-07-04T01:26:32.825Z,16.05
2017-07-04T01:29:05.159Z,16.04
2017-07-04T01:31:37.533Z,16.07
2017-07-04T01:34:09.938Z,16.02
2017-07-04T01:36:42.285Z,15.87
2017-07-04T01:39:14.667Z,15.79
2017-07-04T01:41:47.069Z,15.75
2017-07-04T01:44:19.647Z,15.65
2017-07-04T01:46:53.046Z,15.52
2017-07-04T01:49:25.697Z,15.55
2017-07-04T01:51:57.964Z,15.60
2017-07-04T01:54:30.675Z,15.57
2017-07-04T01:57:03.007Z,15.59
2017-07-04T01:59:35.330Z,15.57
2017-07-04T02:02:07.659Z,15.53
2017-07-04T02:04:39.971Z,15.49
2017-07-04T02:07:13.291Z,15.37
2017-07-04T02:09:46.291Z,15.31
2017-07-04T02:12:19.052Z,15.31
2017-07-04T02:14:51.540Z,15.26
2017-07-04T02:17:23.966Z,15.17
2017-07-04T02:19:56.337Z,15.13
2017-07-04T02:22:28.911Z,15.05
2017-07-04T02:25:01.292Z,15.05
2017-07-04T02:27:34.414Z,15.02
2017-07-04T02:30:07.008Z,14.96
2017-07-04T02:32:39.321Z,14.96
2017-07-04T02:35:12.520Z,14.92
2017-07-04T02:37:45.092Z,14.92
2017-07-04T02:40:17.501Z,14.91
2017-07-04T02:42:49.764Z,14.89
2017-07-04T02:45:22.048Z,14.84
2017-07-04T02:47:54.392Z,14.75
2017-07-04T02:50:26.666Z,14.72
2017-07-04T02:52:58.998Z,14.71
2017-07-04T02:55:32.347Z,14.72
2017-07-04T02:58:04.683Z,14.69
2017-07-04T03:00:37.073Z,14.65
2017-07-04T03:03:09.492Z,14.62
2017-07-04T03:05:41.828Z,14.58
2017-07-04T03:08:14.159Z,14.54
2017-07-04T03:10:47.475Z,14.52
2017-07-04T03:13:20.216Z,14.50
2017-07-04T03:15:52.617Z,14.50
2017-07-04T03:18:24.936Z,14.49
2017-07-04T03:20:57.397Z,14.50
2017-07-04T03:23:29.682Z,14.53
2017-07-04T03:26:02.223Z,14.49
2017-07-04T03:28:35.172Z,14.52
2017-07-04T03:31:07.911Z,14.54
2017-07-04T03:33:40.683Z,14.56
2017-07-04T03:36:12.778Z,14.60
2017-07-04T03:38:46.117Z,14.67
2017-07-04T03:41:19.588Z,14.73
2017-07-04T03:43:51.859Z,14.82
2017-07-04T03:46:24.225Z,14.85
2017-07-04T03:48:56.701Z,14.92
2017-07-04T03:51:29.071Z,15.01
2017-07-04T03:54:01.445Z,15.08
2017-07-04T03:56:33.853Z,15.12
2017-07-04T03:59:06.193Z,15.19
2017-07-04T04:01:38.647Z,15.19
2017-07-04T04:04:11.002Z,15.28
2017-07-04T04:06:43.304Z,15.34
2017-07-04T04:09:15.623Z,15.38
2017-07-04T04:11:47.976Z,15.50
2017-07-04T04:14:20.288Z,15.59
2017-07-04T04:16:52.629Z,15.74
2017-07-04T04:19:25.020Z,15.78
2017-07-04T04:21:57.432Z,15.83
2017-07-04T04:24:29.918Z,15.86
2017-07-04T04:27:02.372Z,15.91
2017-07-04T04:29:34.757Z,15.86
2017-07-04T04:32:07.179Z,15.90
2017-07-04T04:34:39.495Z,15.88
2017-07-04T04:37:13.071Z,15.85
2017-07-04T04:39:45.480Z,15.93
2017-07-04T04:42:17.852Z,15.93
2017-07-04T04:44:50.283Z,15.96
2017-07-04T04:47:22.727Z,16.06
2017-07-04T04:49:55.067Z,16.08
2017-07-04T04:52:27.444Z,16.13
2017-07-04T04:54:59.720Z,16.16
2017-07-04T04:57:33.091Z,16.36
2017-07-04T05:00:05.488Z,16.63
2017-07-04T05:02:38.874Z,16.73
2017-07-04T05:05:11.563Z,16.84
2017-07-04T05:07:43.649Z,17.02
2017-07-04T05:10:16.059Z,17.18
2017-07-04T05:12:48.381Z,17.27
2017-07-04T05:15:20.775Z,17.37
2017-07-04T05:17:53.165Z,17.49
2017-07-04T05:20:25.471Z,17.73
2017-07-04T05:22:57.890Z,17.86
2017-07-04T05:25:30.238Z,17.93
2017-07-04T05:28:02.627Z,17.85
2017-07-04T05:30:34.975Z,17.89
2017-07-04T05:33:07.470Z,17.88
2017-07-04T05:35:39.958Z,17.96
2017-07-04T05:38:13.367Z,18.05
2017-07-04T05:40:46.165Z,18.37
2017-07-04T05:43:18.289Z,19.03
2017-07-04T05:45:51.391Z,19.68
2017-07-04T05:48:24.057Z,20.50
2017-07-04T05:50:56.412Z,21.21
2017-07-04T05:53:28.731Z,21.39
2017-07-04T05:56:01.137Z,21.43
2017-07-04T05:58:33.415Z,21.38
2017-07-04T06:01:05.904Z,21.08
2017-07-04T06:03:38.362Z,20.89
2017-07-04T06:06:11.373Z,20.67
2017-07-04T06:08:44.155Z,20.62
2017-07-04T06:11:16.666Z,20.61
2017-07-04T06:13:49.004Z,20.61
2017-07-04T06:16:21.451Z,20.57
2017-07-04T06:18:54.548Z,20.50
2017-07-04T06:21:27.147Z,20.38
2017-07-04T06:23:59.652Z,20.61
2017-07-04T06:26:32.169Z,21.35
2017-07-04T06:29:04.644Z,22.34
2017-07-04T06:31:36.984Z,23.20
2017-07-04T06:34:09.872Z,24.10
2017-07-04T06:36:41.918Z,25.21
2017-07-04T06:39:14.253Z,25.82
2017-07-04T06:41:47.064Z,25.77
2017-07-04T06:44:19.152Z,25.66
2017-07-04T06:46:51.390Z,25.62
2017-07-04T06:49:23.825Z,25.78
2017-07-04T06:51:56.261Z,25.59
2017-07-04T06:54:28.753Z,25.41
2017-07-04T06:57:01.859Z,25.44
2017-07-04T06:59:34.432Z,25.98
2017-07-04T07:02:06.772Z,26.38
2017-07-04T07:04:39.094Z,26.86
2017-07-04T07:07:11.429Z,27.47
2017-07-04T07:09:44.820Z,28.11
2017-07-04T07:12:17.296Z,28.30
2017-07-04T07:14:50.726Z,28.24
2017-07-04T07:17:23.236Z,28.29
2017-07-04T07:19:55.813Z,28.72
2017-07-04T07:22:27.820Z,28.53
2017-07-04T07:25:00.210Z,28.17
2017-07-04T07:27:32.679Z,27.45
2017-07-04T07:30:05.160Z,27.07
2017-07-04T07:32:37.516Z,25.87
2017-07-04T07:35:09.920Z,26.14
2017-07-04T07:37:42.264Z,26.97
2017-07-04T07:40:14.686Z,27.75
2017-07-04T07:42:47.104Z,28.62
2017-07-04T07:45:20.557Z,29.16
2017-07-04T07:47:53.946Z,29.70
2017-07-04T07:50:26.504Z,30.19
2017-07-04T07:52:59.077Z,30.54
2017-07-04T07:55:31.344Z,30.78
2017-07-04T07:58:03.764Z,30.95
2017-07-04T08:00:36.256Z,30.85
2017-07-04T08:03:08.673Z,30.11
2017-07-04T08:05:41.128Z,30.12
2017-07-04T08:08:13.513Z,29.85
2017-07-04T08:10:46.017Z,29.92
2017-07-04T08:13:18.293Z,29.18
2017-07-04T08:15:50.673Z,29.16
2017-07-04T08:18:23.047Z,29.29
2017-07-04T08:20:55.786Z,29.25
2017-07-04T08:23:28.046Z,29.75
2017-07-04T08:26:00.451Z,29.74
2017-07-04T08:28:32.816Z,29.57
2017-07-04T08:31:05.394Z,29.12
2017-07-04T08:33:37.456Z,29.92
2017-07-04T08:36:11.476Z,30.99
2017-07-04T08:38:43.259Z,31.95
2017-07-04T08:41:16.009Z,32.02
2017-07-04T08:43:47.912Z,31.06
2017-07-04T08:46:20.596Z,31.35
2017-07-04T08:48:52.795Z,31.77
2017-07-04T08:51:25.213Z,32.47
2017-07-04T08:53:57.561Z,32.04
2017-07-04T08:56:30.809Z,31.82
2017-07-04T08:59:03.175Z,32.28
2017-07-04T09:01:35.561Z,33.13
2017-07-04T09:04:07.906Z,32.94
2017-07-04T09:06:40.489Z,33.02
2017-07-04T09:09:12.953Z,32.27
2017-07-04T09:11:45.377Z,32.44
2017-07-04T09:14:17.773Z,32.49
2017-07-04T09:16:50.192Z,32.78
2017-07-04T09:19:22.548Z,33.32
2017-07-04T09:21:55.125Z,33.43
2017-07-04T09:24:27.477Z,33.52
2017-07-04T09:26:59.812Z,32.88
2017-07-04T09:29:32.208Z,33.16
2017-07-04T09:32:04.609Z,32.38
2017-07-04T09:34:36.968Z,32.16
2017-07-04T09:37:09.650Z,30.81
2017-07-04T09:39:41.795Z,30.09
2017-07-04T09:42:14.325Z,30.04
2017-07-04T09:44:46.666Z,29.86
2017-07-04T09:47:19.987Z,30.25
2017-07-04T09:49:52.546Z,30.80
2017-07-04T09:52:24.937Z,31.50
2017-07-04T09:54:57.519Z,31.88
2017-07-04T09:57:30.500Z,32.16
2017-07-04T10:00:03.177Z,32.59
2017-07-04T10:02:35.522Z,32.63
2017-07-04T10:05:07.959Z,31.85
2017-07-04T10:07:40.461Z,31.34
2017-07-04T10:10:12.893Z,31.19
2017-07-04T10:12:45.416Z,30.92
2017-07-04T10:15:17.814Z,30.35
2017-07-04T10:17:50.431Z,29.96
2017-07-04T10:20:23.174Z,29.75
2017-07-04T10:22:55.359Z,29.53
2017-07-04T10:25:27.829Z,29.42
2017-07-04T10:28:00.225Z,29.08
2017-07-04T10:30:32.472Z,28.61
2017-07-04T10:33:04.919Z,28.61
2017-07-04T10:35:37.321Z,28.97
2017-07-04T10:38:10.099Z,29.05
2017-07-04T10:40:42.188Z,28.75
2017-07-04T10:43:14.765Z,28.12
2017-07-04T10:45:47.325Z,27.92
2017-07-04T10:48:19.733Z,26.82
2017-07-04T10:50:52.069Z,26.82
2017-07-04T10:53:24.744Z,27.06
2017-07-04T10:55:56.917Z,26.83
2017-07-04T10:58:29.368Z,26.83
2017-07-04T11:01:02.605Z,26.80
2017-07-04T11:03:35.090Z,27.43
2017-07-04T11:06:07.407Z,28.06
2017-07-04T11:08:40.101Z,28.52
2017-07-04T11:11:12.261Z,28.56
2017-07-04T11:13:44.599Z,28.67
2017-07-04T11:16:17.016Z,28.97
2017-07-04T11:18:49.345Z,28.86
2017-07-04T11:21:21.777Z,28.34
2017-07-04T11:23:54.284Z,28.51
2017-07-04T11:26:26.636Z,28.80
2017-07-04T11:28:59.220Z,29.53
2017-07-04T11:31:31.421Z,29.57
2017-07-04T11:34:04.466Z,29.78
2017-07-04T11:36:36.274Z,30.48
2017-07-04T11:39:08.892Z,30.79
2017-07-04T11:41:40.888Z,30.85
2017-07-04T11:44:13.382Z,31.09
2017-07-04T11:46:45.821Z,31.53
2017-07-04T11:49:18.242Z,30.91
2017-07-04T11:51:50.592Z,29.93
2017-07-04T11:54:22.897Z,29.57
2017-07-04T11:56:55.145Z,29.57
2017-07-04T11:59:27.537Z,29.22
2017-07-04T12:01:59.766Z,28.82
2017-07-04T12:04:32.225Z,28.40
2017-07-04T12:07:04.590Z,27.60
2017-07-04T12:09:36.961Z,27.42
2017-07-04T12:12:09.310Z,28.30
2017-07-04T12:14:41.703Z,28.98
2017-07-04T12:17:14.097Z,28.59
2017-07-04T12:19:46.432Z,28.54
2017-07-04T12:22:18.773Z,28.30
2017-07-04T12:24:51.233Z,28.29
2017-07-04T12:27:24.436Z,28.77
2017-07-04T12:29:57.160Z,29.19
2017-07-04T12:32:29.501Z,29.53
2017-07-04T12:35:02.009Z,29.96
2017-07-04T12:37:34.354Z,29.98
2017-07-04T12:40:07.101Z,29.81
2017-07-04T12:42:39.168Z,30.26
2017-07-04T12:45:11.564Z,30.47
2017-07-04T12:47:44.082Z,30.26
2017-07-04T12:50:16.407Z,29.85
2017-07-04T12:52:48.632Z,30.04
2017-07-04T12:55:21.156Z,30.11
2017-07-04T12:57:53.528Z,30.16
2017-07-04T13:00:26.005Z,29.98
2017-07-04T13:02:58.297Z,30.09
2017-07-04T13:05:30.749Z,30.10
2017-07-04T13:08:03.117Z,29.79
2017-07-04T13:10:35.708Z,29.65
2017-07-04T13:13:07.923Z,29.56
2017-07-04T13:15:40.330Z,29.04
2017-07-04T13:18:13.002Z,28.42
2017-07-04T13:20:45.204Z,27.96
2017-07-04T13:23:17.523Z,27.55
2017-07-04T13:25:49.969Z,27.65
2017-07-04T13:28:22.385Z,27.93
2017-07-04T13:30:55.199Z,28.13
2017-07-04T13:33:27.136Z,28.43
2017-07-04T13:35:59.561Z,28.71
2017-07-04T13:38:31.916Z,28.94
2017-07-04T13:41:04.443Z,28.87
2017-07-04T13:43:36.748Z,28.73
2017-07-04T13:46:09.139Z,28.34
2017-07-04T13:48:41.502Z,27.96
2017-07-04T13:51:14.933Z,28.03
2017-07-04T13:53:47.254Z,28.08
2017-07-04T13:56:20.093Z,27.56
2017-07-04T13:58:52.182Z,27.29
2017-07-04T14:01:24.612Z,27.34
2017-07-04T14:03:57.069Z,27.43
2017-07-04T14:06:29.560Z,27.42
2017-07-04T14:09:01.857Z,27.47
2017-07-04T14:11:34.237Z,27.53
2017-07-04T14:14:06.681Z,27.31
2017-07-04T14:16:39.126Z,27.15
2017-07-04T14:19:12.446Z,27.08
2017-07-04T14:21:44.945Z,27.10
2017-07-04T14:24:17.276Z,26.78
2017-07-04T14:26:49.698Z,26.79
2017-07-04T14:29:22.291Z,26.60
2017-07-04T14:31:54.683Z,26.30
2017-07-04T14:34:26.734Z,26.27
2017-07-04T14:36:59.077Z,26.44
2017-07-04T14:39:31.496Z,26.33
2017-07-04T14:42:04.009Z,26.32
2017-07-04T14:44:36.356Z,26.33
2017-07-04T14:47:08.803Z,26.08
2017-07-04T14:49:41.257Z,26.07
2017-07-04T14:52:13.802Z,26.05
2017-07-04T14:54:46.318Z,26.07
2017-07-04T14:57:18.677Z,26.24
2017-07-04T14:59:51.002Z,26.38
2017-07-04T15:02:23.505Z,26.39
2017-07-04T15:04:55.824Z,26.41
2017-07-04T15:07:29.231Z,26.34
2017-07-04T15:10:01.595Z,26.30
2017-07-04T15:12:34.092Z,26.15
2017-07-04T15:15:07.345Z,26.00
2017-07-04T15:17:39.963Z,25.95
2017-07-04T15:20:12.722Z,26.00
2017-07-04T15:22:44.787Z,26.03
2017-07-04T15:25:17.103Z,25.99
2017-07-04T15:27:49.489Z,25.98
2017-07-04T15:30:21.866Z,25.95
2017-07-04T15:32:54.350Z,25.84
2017-07-04T15:35:27.008Z,25.63
2017-07-04T15:37:59.057Z,25.54
2017-07-04T15:40:31.447Z,25.47
2017-07-04T15:43:03.744Z,25.48
2017-07-04T15:45:36.024Z,25.41
2017-07-04T15:48:08.461Z,25.44
2017-07-04T15:50:40.842Z,25.47
2017-07-04T15:53:13.274Z,25.47
2017-07-04T15:55:45.679Z,25.36
2017-07-04T15:58:18.081Z,25.35
2017-07-04T16:00:50.379Z,25.36
2017-07-04T16:03:23.706Z,25.38
2017-07-04T16:05:56.101Z,25.32
2017-07-04T16:08:28.622Z,25.12
2017-07-04T16:11:01.065Z,25.12
2017-07-04T16:13:34.793Z,25.23
2017-07-04T16:16:06.840Z,25.26
2017-07-04T16:18:39.231Z,25.17
2017-07-04T16:21:11.569Z,25.12
2017-07-04T16:23:44.176Z,25.08
2017-07-04T16:26:16.517Z,24.76
2017-07-04T16:28:48.814Z,24.68
2017-07-04T16:31:21.191Z,24.69
2017-07-04T16:33:53.582Z,24.73
2017-07-04T16:36:25.894Z,24.79
2017-07-04T16:38:58.308Z,24.86
2017-07-04T16:41:30.773Z,24.97
2017-07-04T16:44:03.280Z,24.99
2017-07-04T16:46:35.618Z,25.09
2017-07-04T16:49:08.034Z,25.02
2017-07-04T16:51:40.296Z,24.99
2017-07-04T16:54:13.673Z,25.02
2017-07-04T16:56:46.128Z,25.03
2017-07-04T16:59:19.531Z,25.03
2017-07-04T17:01:51.884Z,24.94
2017-07-04T17:04:24.199Z,24.98
2017-07-04T17:06:56.623Z,25.01
2017-07-04T17:09:28.972Z,25.04
2017-07-04T17:12:01.392Z,25.00
2017-07-04T17:14:33.910Z,25.02
2017-07-04T17:17:06.196Z,25.06
2017-07-04T17:19:38.652Z,25.09
2017-07-04T17:22:11.042Z,25.11
2017-07-04T17:24:43.572Z,25.08
2017-07-04T17:27:15.923Z,25.06
2017-07-04T17:29:48.445Z,24.97
2017-07-04T17:32:20.907Z,24.81
2017-07-04T17:34:53.301Z,24.61
2017-07-04T17:37:25.664Z,24.49
2017-07-04T17:39:59.159Z,24.36
2017-07-04T17:42:31.533Z,24.24
2017-07-04T17:45:04.834Z,24.25
2017-07-04T17:47:37.355Z,24.18
2017-07-04T17:50:09.684Z,24.09
2017-07-04T17:52:42.140Z,24.02
2017-07-04T17:55:14.589Z,23.84
2017-07-04T17:57:46.972Z,23.70
2017-07-04T18:00:19.873Z,23.55
2017-07-04T18:02:51.665Z,23.41
2017-07-04T18:05:24.253Z,23.23
2017-07-04T18:07:56.392Z,23.08
2017-07-04T18:10:28.768Z,22.98
2017-07-04T18:13:01.157Z,22.86
2017-07-04T18:15:33.693Z,22.74
2017-07-04T18:18:06.134Z,22.65
2017-07-04T18:20:38.580Z,22.57
2017-07-04T18:23:10.985Z,22.58
2017-07-04T18:25:43.390Z,22.59
2017-07-04T18:28:15.770Z,22.60
2017-07-04T18:30:48.166Z,22.68
2017-07-04T18:33:20.505Z,22.78
2017-07-04T18:35:53.601Z,22.85
2017-07-04T18:38:25.385Z,22.90
2017-07-04T18:40:57.837Z,22.84
2017-07-04T18:43:30.309Z,22.78
2017-07-04T18:46:03.457Z,22.78
2017-07-04T18:48:35.978Z,22.74
2017-07-04T18:51:08.509Z,22.65
2017-07-04T18:53:40.772Z,22.52
2017-07-04T18:56:13.624Z,22.45
2017-07-04T18:58:45.680Z,22.32
2017-07-04T19:01:18.208Z,22.25
2017-07-04T19:03:51.508Z,22.15
2017-07-04T19:06:24.122Z,21.96
2017-07-04T19:08:56.408Z,21.88
2017-07-04T19:11:28.960Z,21.79
2017-07-04T19:14:01.244Z,21.68
2017-07-04T19:16:33.659Z,21.54
2017-07-04T19:19:05.998Z,21.49
2017-07-04T19:21:39.394Z,21.36
2017-07-04T19:24:12.201Z,21.23
2017-07-04T19:26:44.213Z,21.12
2017-07-04T19:29:16.555Z,21.01
2017-07-04T19:31:49.000Z,20.90
2017-07-04T19:34:21.257Z,20.77
2017-07-04T19:36:53.757Z,20.65
2017-07-04T19:39:26.217Z,20.55
2017-07-04T19:41:58.704Z,20.44
2017-07-04T19:44:31.114Z,20.31
2017-07-04T19:47:04.347Z,20.21
2017-07-04T19:49:36.857Z,20.12
2017-07-04T19:52:09.470Z,20.07
2017-07-04T19:54:41.980Z,20.05
2017-07-04T19:57:14.482Z,20.00
2017-07-04T19:59:46.805Z,19.95
2017-07-04T20:02:19.133Z,19.97
2017-07-04T20:04:51.553Z,19.97
2017-07-04T20:07:23.953Z,19.96
2017-07-04T20:09:56.389Z,19.93
2017-07-04T20:12:28.911Z,19.90
2017-07-04T20:15:02.054Z,19.90
2017-07-04T20:17:37.298Z,19.83
2017-07-04T20:20:09.717Z,19.83
2017-07-04T20:22:42.117Z,19.80
2017-07-04T20:25:14.462Z,19.76
2017-07-04T20:27:46.800Z,19.72
2017-07-04T20:30:19.305Z,19.72
2017-07-04T20:32:51.826Z,19.64
2017-07-04T20:35:24.187Z,19.63
2017-07-04T20:37:56.640Z,19.56
2017-07-04T20:40:29.001Z,19.51
2017-07-04T20:43:01.308Z,19.45
2017-07-04T20:45:33.556Z,19.41
2017-07-04T20:48:06.141Z,19.41
2017-07-04T20:50:38.329Z,19.42
2017-07-04T20:53:10.798Z,19.43
2017-07-04T20:55:43.141Z,19.34
2017-07-04T20:58:15.486Z,19.36
2017-07-04T21:00:47.807Z,19.35
2017-07-04T21:03:20.281Z,19.29
2017-07-04T21:05:52.745Z,19.24
2017-07-04T21:08:25.538Z,19.15
2017-07-04T21:10:57.667Z,19.13
2017-07-04T21:13:30.003Z,19.14
2017-07-04T21:16:02.383Z,19.11
2017-07-04T21:18:34.650Z,19.04
2017-07-04T21:21:07.013Z,19.01
2017-07-04T21:23:39.274Z,18.90
2017-07-04T21:26:11.628Z,18.91
2017-07-04T21:28:44.490Z,18.83
2017-07-04T21:31:16.565Z,18.67
2017-07-04T21:33:48.976Z,18.62
2017-07-04T21:36:21.322Z,18.64
2017-07-04T21:38:54.076Z,18.59
2017-07-04T21:41:26.157Z,18.53
2017-07-04T21:43:58.993Z,18.35
2017-07-04T21:46:31.209Z,18.36
2017-07-04T21:49:03.261Z,18.38
2017-07-04T21:51:35.563Z,18.35
2017-07-04T21:54:07.866Z,18.27
2017-07-04T21:56:40.237Z,18.19
2017-07-04T21:59:12.813Z,18.13
2017-07-04T22:01:45.329Z,18.04
2017-07-04T22:04:17.719Z,17.91
2017-07-04T22:06:50.121Z,17.80
2017-07-04T22:09:22.638Z,17.65
2017-07-04T22:11:54.946Z,17.67
2017-07-04T22:14:27.372Z,17.70
2017-07-04T22:16:59.700Z,17.62
2017-07-04T22:19:32.885Z,17.50
2017-07-04T22:22:05.800Z,17.45
2017-07-04T22:24:37.897Z,17.56
2017-07-04T22:27:10.252Z,17.56
2017-07-04T22:29:42.733Z,17.49
2017-07-04T22:32:15.117Z,17.49
2017-07-04T22:34:47.593Z,17.45
2017-07-04T22:37:20.136Z,17.43
2017-07-04T22:39:52.669Z,17.47
2017-07-04T22:42:24.993Z,17.53
2017-07-04T22:44:57.393Z,17.54
2017-07-04T22:47:29.777Z,17.48
2017-07-04T22:50:02.136Z,17.42
2017-07-04T22:52:34.506Z,17.44
2017-07-04T22:55:06.937Z,17.47
2017-07-04T22:57:39.257Z,17.39
2017-07-04T23:00:11.682Z,17.40
2017-07-04T23:02:43.985Z,17.49
2017-07-04T23:05:16.493Z,17.45
2017-07-04T23:07:48.937Z,17.40
2017-07-04T23:10:21.437Z,17.38
2017-07-04T23:12:53.756Z,17.39
2017-07-04T23:15:26.281Z,17.34
2017-07-04T23:17:58.544Z,17.33
2017-07-04T23:20:30.948Z,17.32
2017-07-04T23:23:03.377Z,17.13
2017-07-04T23:25:35.836Z,17.11
2017-07-04T23:28:07.944Z,17.06
2017-07-04T23:30:40.349Z,17.09
2017-07-04T23:33:12.720Z,17.02
2017-07-04T23:35:44.982Z,17.03
2017-07-04T23:38:17.530Z,17.11
2017-07-04T23:40:49.905Z,17.08
2017-07-04T23:43:22.373Z,17.09
2017-07-04T23:45:54.752Z,17.03
2017-07-04T23:48:27.096Z,16.96
2017-07-04T23:50:59.602Z,16.85
2017-07-04T23:53:31.964Z,16.88
2017-07-04T23:56:04.541Z,16.86
2017-07-04T23:58:36.795Z,16.85
